Time;durP1;ratioP1;P1;durP2;ratioP2;P2;SDS_P1;SDS_P2;PMS_P1;PMS_P2;Temp;Humidity;BMP_temperature;BMP_pressure;BME280_temperature;BME280_humidity;BME280_pressure;Samples;Min_cycle;Max_cycle;Signal;HPM_P1;HPM_P2
2023/08/17 00:01:34;;;;;;;5.50;2.70;;;19.30;83.80;;;;;;5045835;28;20467;-50
2023/08/17 00:04:00;;;;;;;4.37;1.93;;;19.30;83.10;;;;;;5050530;28;20552;-51
2023/08/17 00:06:27;;;;;;;4.57;2.20;;;19.30;81.80;;;;;;5054659;28;20552;-51
2023/08/17 00:08:53;;;;;;;5.20;2.40;;;19.30;81.10;;;;;;5047623;28;20512;-50
2023/08/17 00:11:20;;;;;;;4.47;2.20;;;19.20;79.30;;;;;;5054656;28;20500;-51
2023/08/17 00:13:48;;;;;;;4.70;2.50;;;19.20;78.30;;;;;;5044116;28;20520;-51
2023/08/17 00:16:15;;;;;;;7.10;2.67;;;19.20;76.50;;;;;;5055240;28;20473;-51
2023/08/17 00:18:41;;;;;;;5.57;2.43;;;19.10;75.40;;;;;;5047384;28;21114;-51
2023/08/17 00:21:08;;;;;;;5.97;2.30;;;19.10;71.00;;;;;;5046700;28;20533;-51
2023/08/17 00:23:35;;;;;;;3.53;2.30;;;19.10;72.10;;;;;;5052448;28;20958;-51
2023/08/17 00:26:01;;;;;;;6.47;2.73;;;19.00;72.70;;;;;;5053941;28;20466;-51
2023/08/17 00:28:28;;;;;;;6.00;2.40;;;19.00;72.30;;;;;;5048199;28;20576;-52
2023/08/17 00:30:56;;;;;;;8.27;2.77;;;19.00;70.40;;;;;;5043613;28;20578;-51
2023/08/17 00:33:22;;;;;;;6.00;2.67;;;19.00;70.00;;;;;;5053773;28;20513;-51
2023/08/17 00:35:49;;;;;;;5.20;2.43;;;19.00;71.20;;;;;;5052939;28;20851;-51
2023/08/17 00:38:15;;;;;;;5.03;2.63;;;19.00;67.60;;;;;;5052328;28;20664;-51
2023/08/17 00:40:42;;;;;;;6.30;2.30;;;19.00;67.80;;;;;;5052606;28;20544;-50
2023/08/17 00:43:08;;;;;;;9.87;2.50;;;19.00;65.90;;;;;;5053944;28;20446;-51
2023/08/17 00:45:36;;;;;;;4.80;2.27;;;18.90;65.90;;;;;;5053175;28;20662;-51
2023/08/17 00:48:07;;;;;;;4.87;2.10;;;18.90;64.70;;;;;;5054483;28;20540;-51
2023/08/17 00:50:35;;;;;;;4.57;2.60;;;18.90;63.80;;;;;;5047551;28;20470;-51
2023/08/17 00:53:02;;;;;;;5.53;2.53;;;18.90;64.10;;;;;;5053213;28;20442;-52
2023/08/17 00:55:29;;;;;;;2.53;2.07;;;18.90;63.50;;;;;;5049314;28;20458;-51
2023/08/17 00:57:57;;;;;;;5.20;2.17;;;18.90;63.00;;;;;;5052520;28;21026;-51
2023/08/17 01:00:25;;;;;;;4.23;2.10;;;18.90;64.60;;;;;;5051592;28;21035;-51
2023/08/17 01:02:52;;;;;;;7.30;2.70;;;18.90;63.30;;;;;;5054367;28;20521;-50
2023/08/17 01:05:20;;;;;;;4.73;2.40;;;18.90;63.90;;;;;;5051668;28;21209;-50
2023/08/17 01:07:47;;;;;;;4.90;2.07;;;18.90;64.10;;;;;;5044757;28;20514;-51
2023/08/17 01:10:14;;;;;;;3.43;2.10;;;18.80;62.60;;;;;;5052001;28;20552;-51
2023/08/17 01:12:49;;;;;;;4.60;2.30;;;18.80;62.80;;;;;;5053189;28;21079;-51
2023/08/17 01:15:19;;;;;;;10.67;3.20;;;18.80;62.00;;;;;;5047603;28;20562;-51
2023/08/17 01:17:55;;;;;;;4.80;2.20;;;18.80;60.70;;;;;;5047317;28;20496;-50
2023/08/17 01:20:24;;;;;;;3.83;2.63;;;18.70;61.10;;;;;;5047612;28;20938;-51
2023/08/17 01:22:56;;;;;;;4.83;2.40;;;18.70;59.50;;;;;;5041218;28;20467;-51
2023/08/17 01:25:24;;;;;;;5.17;2.27;;;18.70;56.20;;;;;;5050438;28;20458;-51
2023/08/17 01:27:51;;;;;;;5.93;2.57;;;18.70;56.60;;;;;;5051337;28;20524;-50
2023/08/17 01:30:19;;;;;;;4.57;2.80;;;18.60;56.40;;;;;;5048476;28;21045;-51
2023/08/17 01:32:51;;;;;;;7.90;2.40;;;18.60;55.70;;;;;;5046622;28;20493;-50
2023/08/17 01:35:25;;;;;;;4.57;2.33;;;18.60;56.40;;;;;;5044915;28;20516;-51
2023/08/17 01:37:53;;;;;;;9.80;3.07;;;18.60;56.90;;;;;;5053699;28;20497;-50
2023/08/17 01:40:21;;;;;;;6.70;2.40;;;18.60;56.90;;;;;;5049545;28;20520;-51
2023/08/17 01:42:50;;;;;;;4.60;2.13;;;18.60;55.30;;;;;;5053198;28;20474;-51
2023/08/17 01:45:17;;;;;;;3.17;1.87;;;18.50;56.40;;;;;;5046860;28;20804;-51
2023/08/17 01:47:44;;;;;;;7.03;2.50;;;18.50;54.30;;;;;;5053279;28;20497;-51
2023/08/17 01:50:10;;;;;;;7.07;2.30;;;18.50;54.90;;;;;;5049199;28;20490;-51
2023/08/17 01:52:37;;;;;;;9.70;2.70;;;18.40;54.70;;;;;;5048208;28;20469;-52
2023/08/17 01:55:04;;;;;;;3.83;1.90;;;18.40;55.70;;;;;;5048884;28;20571;-50
2023/08/17 01:57:30;;;;;;;4.17;2.30;;;18.40;53.80;;;;;;5053166;28;20476;-51
2023/08/17 01:59:58;;;;;;;8.63;2.40;;;18.40;55.80;;;;;;5050655;28;20556;-50
2023/08/17 02:02:25;;;;;;;7.40;1.70;;;18.40;55.60;;;;;;5046672;28;20951;-51
2023/08/17 02:04:51;;;;;;;3.83;2.23;;;18.30;56.10;;;;;;5051193;28;20489;-50
2023/08/17 02:07:18;;;;;;;6.87;1.90;;;18.30;56.80;;;;;;5051492;28;20457;-50
2023/08/17 02:09:44;;;;;;;4.40;2.17;;;18.30;58.70;;;;;;5049287;28;20545;-50
2023/08/17 02:12:11;;;;;;;5.93;2.00;;;18.30;59.30;;;;;;5052342;28;20885;-51
2023/08/17 02:14:37;;;;;;;3.43;1.67;;;18.20;61.60;;;;;;5044131;28;20478;-51
2023/08/17 02:17:05;;;;;;;4.07;2.13;;;18.20;61.70;;;;;;5051857;28;20481;-51
2023/08/17 02:19:32;;;;;;;5.70;2.10;;;18.20;62.40;;;;;;5038123;28;21069;-51
2023/08/17 02:21:59;;;;;;;4.30;2.17;;;18.20;62.50;;;;;;5050189;28;20462;-51
2023/08/17 02:24:25;;;;;;;6.30;2.30;;;18.20;66.40;;;;;;5050024;28;20981;-51
2023/08/17 02:26:51;;;;;;;9.00;3.13;;;18.20;65.10;;;;;;5051981;28;20453;-51
2023/08/17 02:29:18;;;;;;;3.77;1.70;;;18.10;71.00;;;;;;5051800;28;20223;-52
2023/08/17 02:31:44;;;;;;;2.40;1.80;;;18.10;70.80;;;;;;5051801;28;20466;-50
2023/08/17 02:34:12;;;;;;;6.00;2.33;;;18.10;74.70;;;;;;5046893;28;21105;-51
2023/08/17 02:36:38;;;;;;;6.00;2.00;;;18.10;76.30;;;;;;5052337;28;20522;-51
2023/08/17 02:39:05;;;;;;;7.43;2.60;;;18.00;78.10;;;;;;5049049;28;20509;-51
2023/08/17 02:41:32;;;;;;;2.90;1.73;;;18.00;78.70;;;;;;5051492;28;20541;-51
2023/08/17 02:43:59;;;;;;;3.13;1.50;;;18.00;80.80;;;;;;5048852;28;20465;-51
2023/08/17 02:46:25;;;;;;;4.23;1.57;;;18.00;81.00;;;;;;5045163;28;20540;-51
2023/08/17 02:48:53;;;;;;;2.47;1.63;;;17.90;89.30;;;;;;5050437;28;20516;-51
2023/08/17 02:51:20;;;;;;;3.27;1.77;;;17.90;90.80;;;;;;5052342;28;20529;-51
2023/08/17 02:53:47;;;;;;;6.00;2.13;;;18.00;94.30;;;;;;5049801;28;20560;-51
2023/08/17 02:56:13;;;;;;;2.17;1.60;;;18.00;91.60;;;;;;5051053;28;20457;-50
2023/08/17 02:58:40;;;;;;;9.20;1.50;;;18.00;99.00;;;;;;5051144;28;20509;-50
2023/08/17 03:01:07;;;;;;;3.27;1.70;;;18.00;99.10;;;;;;5047915;28;20453;-50
2023/08/17 03:03:34;;;;;;;4.70;2.00;;;18.00;99.90;;;;;;5049428;28;20485;-50
2023/08/17 03:06:00;;;;;;;4.60;1.80;;;18.00;99.90;;;;;;5051432;28;20462;-50
2023/08/17 03:08:28;;;;;;;4.50;1.93;;;17.90;99.90;;;;;;5051235;28;20497;-50
2023/08/17 03:10:55;;;;;;;5.33;1.47;;;17.90;99.90;;;;;;5049584;28;20458;-51
2023/08/17 03:13:21;;;;;;;12.13;1.90;;;17.90;99.90;;;;;;5051259;28;20469;-51
2023/08/17 03:15:48;;;;;;;3.13;1.87;;;17.90;99.90;;;;;;5050892;28;20573;-51
2023/08/17 03:18:14;;;;;;;6.13;1.87;;;17.90;99.90;;;;;;5050959;28;20908;-57
2023/08/17 03:20:41;;;;;;;4.67;1.73;;;17.80;99.90;;;;;;5049453;28;20547;-58
2023/08/17 03:23:08;;;;;;;7.10;1.90;;;17.80;99.90;;;;;;5051734;28;20476;-58
2023/08/17 03:25:36;;;;;;;2.57;2.00;;;17.80;99.90;;;;;;5048772;28;20932;-57
2023/08/17 03:28:02;;;;;;;3.03;1.60;;;17.80;99.90;;;;;;5051575;28;20496;-57
2023/08/17 03:30:29;;;;;;;3.03;1.40;;;17.80;99.90;;;;;;5051736;28;20537;-57
2023/08/17 03:32:55;;;;;;;8.10;1.63;;;17.70;99.90;;;;;;5048484;28;20466;-57
2023/08/17 03:35:22;;;;;;;1.67;1.50;;;17.70;99.90;;;;;;5049346;28;20481;-58
2023/08/17 03:37:48;;;;;;;3.40;1.80;;;17.70;99.90;;;;;;5050846;28;20501;-58
2023/08/17 03:40:15;;;;;;;3.00;1.77;;;17.70;99.90;;;;;;5049430;28;20493;-58
2023/08/17 03:42:43;;;;;;;3.40;1.70;;;17.70;99.90;;;;;;5042353;28;21008;-59
2023/08/17 03:45:10;;;;;;;3.73;1.60;;;17.70;99.90;;;;;;5050994;28;20438;-59
2023/08/17 03:47:36;;;;;;;4.20;1.40;;;17.70;99.90;;;;;;5043649;28;20895;-60
2023/08/17 03:50:03;;;;;;;7.43;1.73;;;17.70;99.90;;;;;;5050035;28;20533;-59
2023/08/17 03:52:29;;;;;;;2.43;1.47;;;17.70;99.90;;;;;;5050375;28;20477;-59
2023/08/17 03:54:56;;;;;;;2.17;1.30;;;17.80;99.90;;;;;;5048440;28;20960;-60
2023/08/17 03:57:22;;;;;;;5.17;1.50;;;17.80;99.90;;;;;;5050368;28;20541;-59
2023/08/17 03:59:50;;;;;;;5.07;1.50;;;17.80;99.90;;;;;;5051412;28;20480;-59
2023/08/17 04:02:17;;;;;;;1.90;1.47;;;17.90;99.90;;;;;;5051498;28;20442;-59
2023/08/17 04:04:43;;;;;;;4.93;1.80;;;17.90;99.90;;;;;;5046180;28;21011;-59
2023/08/17 04:07:10;;;;;;;4.07;1.60;;;17.80;99.90;;;;;;5040925;28;20541;-58
2023/08/17 04:09:36;;;;;;;5.80;1.57;;;17.90;99.90;;;;;;5048116;28;20509;-57
2023/08/17 04:12:04;;;;;;;4.37;1.73;;;17.90;99.90;;;;;;5047945;28;20488;-57
2023/08/17 04:14:31;;;;;;;2.53;1.47;;;17.90;99.90;;;;;;5042234;28;20541;-56
2023/08/17 04:16:59;;;;;;;2.67;1.50;;;17.90;99.90;;;;;;5048623;28;20473;-56
2023/08/17 04:19:25;;;;;;;3.13;1.87;;;17.80;99.90;;;;;;5047134;28;20930;-54
2023/08/17 04:21:52;;;;;;;2.80;1.67;;;17.90;99.90;;;;;;5051157;28;20466;-55
2023/08/17 04:24:18;;;;;;;3.43;1.33;;;17.80;99.90;;;;;;5049484;28;20473;-55
2023/08/17 04:26:45;;;;;;;2.73;1.57;;;17.80;99.90;;;;;;5043006;28;20458;-54
2023/08/17 04:29:11;;;;;;;1.50;1.20;;;17.80;99.90;;;;;;5050469;28;20482;-55
2023/08/17 04:31:38;;;;;;;2.13;1.60;;;17.80;99.90;;;;;;5053859;28;20449;-55
2023/08/17 04:34:06;;;;;;;6.30;2.00;;;17.80;99.90;;;;;;5054186;28;20525;-55
2023/08/17 04:36:32;;;;;;;3.70;1.40;;;17.80;99.90;;;;;;5053075;28;20517;-55
2023/08/17 04:38:59;;;;;;;3.63;1.60;;;17.80;99.90;;;;;;5048821;28;20481;-54
2023/08/17 04:41:26;;;;;;;5.93;1.63;;;17.90;99.90;;;;;;5050571;28;20540;-55
2023/08/17 04:43:52;;;;;;;2.67;1.40;;;17.90;99.90;;;;;;5048912;28;20561;-55
2023/08/17 04:46:19;;;;;;;5.23;1.60;;;17.90;99.90;;;;;;5042356;28;20487;-55
2023/08/17 04:48:45;;;;;;;12.90;1.70;;;17.90;99.90;;;;;;5050854;28;20486;-56
2023/08/17 04:51:14;;;;;;;2.07;1.70;;;17.90;99.90;;;;;;5043901;28;20983;-54
2023/08/17 04:53:41;;;;;;;5.20;1.87;;;17.90;99.90;;;;;;5045399;28;20536;-55
2023/08/17 04:56:07;;;;;;;2.50;1.53;;;17.90;99.90;;;;;;5052293;28;20528;-55
2023/08/17 04:58:34;;;;;;;1.80;1.60;;;18.00;99.90;;;;;;5048978;28;20532;-55
2023/08/17 05:01:00;;;;;;;3.53;2.30;;;18.00;99.90;;;;;;5043695;28;20990;-55
2023/08/17 05:03:27;;;;;;;3.80;1.60;;;18.00;99.90;;;;;;5052097;28;20496;-55
2023/08/17 05:05:53;;;;;;;4.40;2.17;;;18.00;99.90;;;;;;5044470;28;21166;-55
2023/08/17 05:08:22;;;;;;;4.73;1.80;;;18.00;99.90;;;;;;5045640;28;20512;-55
2023/08/17 05:10:48;;;;;;;3.47;2.00;;;18.00;99.90;;;;;;5048875;28;21016;-55
2023/08/17 05:13:15;;;;;;;5.03;1.50;;;18.00;99.90;;;;;;5051003;28;20489;-55
2023/08/17 05:15:41;;;;;;;3.70;1.90;;;18.00;99.90;;;;;;5039144;28;20518;-55
2023/08/17 05:18:09;;;;;;;3.03;1.63;;;18.10;99.90;;;;;;5049003;28;20513;-55
2023/08/17 05:20:35;;;;;;;3.20;1.77;;;18.10;99.90;;;;;;5048921;28;20879;-55
2023/08/17 05:23:02;;;;;;;3.03;1.60;;;18.10;99.90;;;;;;5051665;28;20529;-54
2023/08/17 05:25:30;;;;;;;3.40;1.27;;;18.10;99.90;;;;;;5052424;28;20462;-55
2023/08/17 05:27:56;;;;;;;4.13;1.50;;;18.10;99.90;;;;;;5053790;28;20457;-54
2023/08/17 05:30:23;;;;;;;2.50;1.43;;;18.10;99.90;;;;;;5053881;28;20466;-54
2023/08/17 05:32:49;;;;;;;6.10;1.50;;;18.10;99.90;;;;;;5053934;28;20470;-54
2023/08/17 05:35:16;;;;;;;4.20;1.70;;;18.10;99.90;;;;;;5045031;28;20545;-54
2023/08/17 05:37:42;;;;;;;2.30;1.90;;;18.10;99.90;;;;;;5050272;28;20577;-55
2023/08/17 05:40:10;;;;;;;2.47;1.70;;;18.10;99.90;;;;;;5050947;28;20548;-55
2023/08/17 05:42:38;;;;;;;4.27;1.97;;;18.10;99.90;;;;;;5042624;28;20462;-55
2023/08/17 05:45:06;;;;;;;3.40;1.80;;;18.10;99.90;;;;;;5043427;28;20451;-56
2023/08/17 05:47:32;;;;;;;2.57;1.67;;;18.10;99.90;;;;;;5046726;28;20943;-55
2023/08/17 05:49:59;;;;;;;7.60;2.10;;;18.20;99.90;;;;;;5048801;28;20540;-55
2023/08/17 05:52:25;;;;;;;2.70;2.00;;;18.10;99.90;;;;;;5047925;28;20497;-55
2023/08/17 05:54:52;;;;;;;2.23;1.60;;;18.20;99.90;;;;;;5051360;28;20983;-56
2023/08/17 05:57:18;;;;;;;5.43;1.90;;;18.10;99.90;;;;;;5053453;28;20525;-55
2023/08/17 05:59:46;;;;;;;4.00;1.97;;;18.20;99.90;;;;;;5049091;28;20485;-54
2023/08/17 06:02:12;;;;;;;2.13;1.50;;;18.10;99.90;;;;;;5047767;28;20550;-53
2023/08/17 06:04:39;;;;;;;2.70;1.80;;;18.20;99.90;;;;;;5046048;28;20465;-53
2023/08/17 06:07:06;;;;;;;2.60;1.70;;;18.20;99.90;;;;;;5049530;28;20492;-51
2023/08/17 06:09:33;;;;;;;2.60;2.00;;;18.30;99.90;;;;;;5043418;28;21058;-52
2023/08/17 06:11:59;;;;;;;2.50;1.60;;;18.30;99.90;;;;;;5050899;28;20493;-51
2023/08/17 06:14:26;;;;;;;3.80;1.80;;;18.30;99.90;;;;;;5049528;28;20498;-52
2023/08/17 06:16:54;;;;;;;2.40;1.40;;;18.40;99.90;;;;;;5051218;28;20513;-52
2023/08/17 06:19:20;;;;;;;8.43;2.13;;;18.40;99.90;;;;;;5050030;28;20521;-52
2023/08/17 06:21:47;;;;;;;4.83;1.80;;;18.40;99.90;;;;;;5048505;28;20438;-53
2023/08/17 06:24:13;;;;;;;2.50;1.70;;;18.50;99.90;;;;;;5050895;28;20544;-52
2023/08/17 06:26:40;;;;;;;3.10;1.53;;;18.50;99.90;;;;;;5052772;28;20437;-52
2023/08/17 06:29:06;;;;;;;3.23;1.60;;;18.50;99.90;;;;;;5051603;28;20504;-51
2023/08/17 06:31:33;;;;;;;4.90;2.07;;;18.60;99.90;;;;;;5052662;28;20541;-52
2023/08/17 06:34:01;;;;;;;12.43;3.10;;;18.60;99.90;;;;;;5051994;28;20500;-52
2023/08/17 06:36:31;;;;;;;6.27;2.10;;;18.70;99.90;;;;;;5050821;28;20577;-52
2023/08/17 06:38:58;;;;;;;6.57;1.97;;;18.70;99.90;;;;;;5051569;28;20518;-53
2023/08/17 06:41:24;;;;;;;5.43;1.80;;;18.70;99.90;;;;;;5052343;28;20959;-52
2023/08/17 06:43:51;;;;;;;6.20;1.77;;;18.70;99.90;;;;;;5051720;28;20454;-53
2023/08/17 06:46:17;;;;;;;2.60;1.50;;;18.80;99.90;;;;;;5051273;28;20474;-52
2023/08/17 06:48:44;;;;;;;6.10;1.90;;;18.80;99.90;;;;;;5052317;28;20545;-52
2023/08/17 06:51:12;;;;;;;6.00;1.70;;;18.90;99.90;;;;;;5052247;28;21006;-54
2023/08/17 06:53:39;;;;;;;11.10;1.80;;;19.00;99.90;;;;;;5040798;28;20549;-53
2023/08/17 06:56:05;;;;;;;5.57;2.10;;;19.10;99.90;;;;;;5048836;28;20548;-52
2023/08/17 06:58:32;;;;;;;3.73;1.87;;;19.20;99.90;;;;;;5050887;28;20833;-51
2023/08/17 07:00:58;;;;;;;3.70;1.77;;;19.30;99.90;;;;;;5042689;28;20494;-51
2023/08/17 07:03:25;;;;;;;3.10;1.97;;;19.40;99.90;;;;;;5048927;28;20504;-52
2023/08/17 07:05:51;;;;;;;3.60;2.20;;;19.60;99.90;;;;;;5049522;28;20870;-52
2023/08/17 07:08:19;;;;;;;3.00;1.70;;;19.70;99.90;;;;;;5042917;28;20912;-53
2023/08/17 07:10:46;;;;;;;4.50;1.90;;;19.90;99.90;;;;;;5050952;28;20461;-53
2023/08/17 07:13:12;;;;;;;7.90;2.47;;;19.90;99.90;;;;;;5048406;28;20462;-53
2023/08/17 07:15:39;;;;;;;3.83;2.10;;;19.90;99.90;;;;;;5049938;28;20513;-53
2023/08/17 07:18:05;;;;;;;4.97;2.27;;;19.90;99.90;;;;;;5049149;28;20521;-51
2023/08/17 07:20:32;;;;;;;4.27;2.60;;;19.90;99.90;;;;;;5040949;28;20520;-53
2023/08/17 07:22:59;;;;;;;5.70;1.93;;;19.80;99.90;;;;;;5049961;28;20993;-52
2023/08/17 07:25:26;;;;;;;4.60;1.70;;;19.90;99.90;;;;;;5051004;28;20536;-51
2023/08/17 07:27:53;;;;;;;6.83;1.70;;;19.90;99.90;;;;;;5051684;28;20524;-52
2023/08/17 07:30:20;;;;;;;2.97;1.83;;;19.80;99.90;;;;;;5051284;28;20473;-52
2023/08/17 07:32:46;;;;;;;2.70;1.90;;;19.70;99.90;;;;;;5051456;28;20480;-52
2023/08/17 07:35:13;;;;;;;2.90;1.80;;;19.80;99.90;;;;;;5049413;28;20488;-52
2023/08/17 07:37:39;;;;;;;4.97;1.57;;;19.80;99.90;;;;;;5050549;28;20442;-52
2023/08/17 07:40:08;;;;;;;5.37;1.97;;;19.80;99.90;;;;;;5051185;28;20858;-52
2023/08/17 07:42:37;;;;;;;3.63;1.93;;;19.90;99.90;;;;;;5051438;28;20539;-51
2023/08/17 07:45:05;;;;;;;2.60;1.50;;;20.00;99.90;;;;;;5050658;28;20446;-52
2023/08/17 07:47:32;;;;;;;3.00;1.63;;;20.10;99.90;;;;;;5051172;28;21154;-52
2023/08/17 07:49:59;;;;;;;2.97;2.00;;;20.20;99.90;;;;;;5048955;28;20912;-53
2023/08/17 07:52:25;;;;;;;4.70;1.93;;;20.20;99.90;;;;;;5049611;28;20542;-51
2023/08/17 07:54:52;;;;;;;3.90;1.73;;;20.10;99.90;;;;;;5041553;28;20553;-52
2023/08/17 07:57:18;;;;;;;4.03;2.10;;;20.00;99.90;;;;;;5048611;28;21078;-52
2023/08/17 07:59:46;;;;;;;3.83;1.77;;;20.10;99.90;;;;;;5050098;28;20504;-51
2023/08/17 08:02:13;;;;;;;4.83;1.60;;;20.10;99.90;;;;;;5046235;28;20466;-52
2023/08/17 08:04:39;;;;;;;4.17;2.20;;;20.20;99.90;;;;;;5045795;28;20963;-53
2023/08/17 08:07:07;;;;;;;1.90;1.70;;;20.20;99.90;;;;;;5055181;28;20469;-52
2023/08/17 08:09:33;;;;;;;2.83;1.63;;;20.20;99.90;;;;;;5054076;28;20564;-52
2023/08/17 08:12:00;;;;;;;4.77;1.67;;;20.20;99.90;;;;;;5054036;28;20506;-52
2023/08/17 08:14:27;;;;;;;5.90;1.87;;;20.20;99.90;;;;;;5052245;28;20884;-53
2023/08/17 08:16:55;;;;;;;5.27;2.23;;;20.20;99.90;;;;;;5054104;28;20481;-52
2023/08/17 08:19:21;;;;;;;3.03;1.43;;;20.20;99.90;;;;;;5052793;28;20535;-53
2023/08/17 08:21:48;;;;;;;2.70;1.77;;;20.30;99.90;;;;;;5052694;28;20501;-52
2023/08/17 08:24:14;;;;;;;3.90;2.13;;;20.30;99.90;;;;;;5048388;28;20480;-53
2023/08/17 08:26:41;;;;;;;4.03;1.97;;;20.30;99.90;;;;;;5055059;28;20480;-52
2023/08/17 08:29:07;;;;;;;3.50;2.07;;;20.40;99.90;;;;;;5050293;28;20517;-53
2023/08/17 08:31:34;;;;;;;5.73;2.10;;;20.50;99.90;;;;;;5053546;28;20489;-53
2023/08/17 08:34:02;;;;;;;5.60;1.87;;;20.50;99.90;;;;;;5054186;28;20469;-52
2023/08/17 08:36:28;;;;;;;7.90;2.27;;;20.60;99.90;;;;;;5052409;28;20485;-52
2023/08/17 08:38:55;;;;;;;2.30;2.00;;;20.60;99.90;;;;;;5054408;28;21050;-51
2023/08/17 08:41:23;;;;;;;7.60;1.97;;;20.70;99.90;;;;;;5054457;28;20481;-52
2023/08/17 08:43:50;;;;;;;2.43;1.60;;;20.90;99.90;;;;;;5053983;28;20485;-52
2023/08/17 08:46:18;;;;;;;2.20;1.60;;;21.00;99.90;;;;;;5052588;28;20515;-52
2023/08/17 08:48:47;;;;;;;6.90;2.30;;;20.90;99.90;;;;;;5054285;28;20842;-52
2023/08/17 08:51:22;;;;;;;1.80;1.70;;;21.00;99.90;;;;;;5052819;28;20540;-52
2023/08/17 08:53:55;;;;;;;3.63;1.90;;;21.10;99.90;;;;;;5053488;28;20953;-53
2023/08/17 08:56:25;;;;;;;2.50;2.07;;;21.10;99.90;;;;;;5054350;28;20486;-52
2023/08/17 08:58:52;;;;;;;5.10;2.13;;;21.10;99.90;;;;;;5054346;28;20492;-53
2023/08/17 09:01:20;;;;;;;4.40;2.17;;;21.20;99.90;;;;;;5053199;28;20459;-52
2023/08/17 09:03:48;;;;;;;4.40;2.13;;;21.20;99.90;;;;;;5045748;28;20534;-51
2023/08/17 09:06:17;;;;;;;4.40;1.90;;;21.20;99.90;;;;;;5052950;28;20493;-52
2023/08/17 09:08:45;;;;;;;6.17;1.63;;;21.20;99.90;;;;;;5052928;28;20596;-53
2023/08/17 09:11:12;;;;;;;7.37;2.10;;;21.20;99.90;;;;;;5051420;28;20962;-53
2023/08/17 09:13:38;;;;;;;5.80;1.87;;;21.20;99.90;;;;;;5052010;28;21016;-53
2023/08/17 09:16:05;;;;;;;9.03;2.63;;;21.20;99.90;;;;;;5050461;28;21030;-52
2023/08/17 09:18:32;;;;;;;4.87;2.23;;;21.20;99.90;;;;;;5050360;28;20496;-51
2023/08/17 09:20:58;;;;;;;3.20;2.37;;;21.30;99.90;;;;;;5051643;28;20575;-52
2023/08/17 09:23:26;;;;;;;8.10;2.03;;;21.40;99.90;;;;;;5052789;28;20489;-50
2023/08/17 09:25:57;;;;;;;2.00;1.63;;;21.40;99.90;;;;;;5051288;28;20497;-51
2023/08/17 09:28:25;;;;;;;3.53;2.17;;;21.50;99.90;;;;;;5050782;28;20527;-51
2023/08/17 09:30:53;;;;;;;3.00;2.33;;;21.50;99.90;;;;;;5051498;28;20592;-50
2023/08/17 09:33:21;;;;;;;4.17;2.27;;;21.60;99.90;;;;;;5044439;28;20541;-51
2023/08/17 09:35:48;;;;;;;4.03;2.10;;;21.70;99.90;;;;;;5049169;28;20501;-52
2023/08/17 09:38:14;;;;;;;2.80;2.27;;;21.80;99.90;;;;;;5053310;28;20512;-51
2023/08/17 09:40:43;;;;;;;2.67;2.47;;;21.90;99.90;;;;;;5052015;28;20505;-51
2023/08/17 09:43:10;;;;;;;4.30;2.10;;;22.00;99.90;;;;;;5053528;28;20517;-51
2023/08/17 09:45:38;;;;;;;2.90;1.97;;;22.20;99.90;;;;;;5049574;28;20557;-51
2023/08/17 09:48:05;;;;;;;2.00;1.80;;;22.40;99.90;;;;;;5050139;28;20520;-51
2023/08/17 09:50:32;;;;;;;3.73;1.87;;;22.50;99.90;;;;;;5050481;28;20504;-51
2023/08/17 09:52:58;;;;;;;3.73;2.50;;;22.70;99.90;;;;;;5051384;28;20450;-52
2023/08/17 09:55:25;;;;;;;3.67;2.50;;;22.70;99.90;;;;;;5050583;28;20549;-51
2023/08/17 09:57:53;;;;;;;2.17;1.97;;;22.80;99.90;;;;;;5051775;28;20517;-50
2023/08/17 10:00:21;;;;;;;4.20;2.17;;;23.00;99.90;;;;;;5052221;28;20564;-51
2023/08/17 10:02:50;;;;;;;4.93;2.07;;;23.10;99.90;;;;;;5050882;28;20470;-51
2023/08/17 10:05:19;;;;;;;12.97;3.70;;;23.00;99.90;;;;;;5048685;28;20524;-51
2023/08/17 10:07:57;;;;;;;5.30;2.70;;;23.00;99.90;;;;;;5052251;28;20560;-50
2023/08/17 10:10:26;;;;;;;2.17;1.97;;;23.00;99.90;;;;;;5041190;28;20489;-51
2023/08/17 10:13:04;;;;;;;8.17;2.17;;;22.80;99.90;;;;;;5052813;28;20550;-51
2023/08/17 10:15:32;;;;;;;7.63;2.20;;;22.80;99.90;;;;;;5049594;28;20490;-50
2023/08/17 10:18:05;;;;;;;7.70;2.77;;;22.60;99.90;;;;;;5051421;28;20580;-51
2023/08/17 10:20:35;;;;;;;3.63;2.60;;;22.50;99.90;;;;;;5050351;28;20473;-51
2023/08/17 10:23:10;;;;;;;2.57;2.23;;;22.40;99.90;;;;;;5049329;28;20485;-51
2023/08/17 10:25:38;;;;;;;4.60;2.43;;;22.30;99.90;;;;;;5050932;28;20481;-51
2023/08/17 10:28:06;;;;;;;2.90;2.60;;;22.30;99.90;;;;;;5052348;28;20482;-51
2023/08/17 10:30:34;;;;;;;5.13;2.50;;;22.30;99.90;;;;;;5052078;28;20553;-51
2023/08/17 10:33:00;;;;;;;7.30;3.40;;;22.30;99.90;;;;;;5051510;28;20489;-51
2023/08/17 10:35:28;;;;;;;3.10;2.33;;;22.40;99.90;;;;;;5050321;28;20515;-51
2023/08/17 10:37:54;;;;;;;2.40;2.13;;;22.50;99.90;;;;;;5052298;28;20514;-51
2023/08/17 10:40:27;;;;;;;4.93;2.77;;;22.50;99.90;;;;;;5052986;28;20446;-51
2023/08/17 10:42:55;;;;;;;3.17;2.63;;;22.60;99.90;;;;;;5052670;28;20446;-51
2023/08/17 10:45:31;;;;;;;3.40;2.53;;;22.60;99.90;;;;;;5050482;28;21003;-51
2023/08/17 10:48:16;;;;;;;2.63;2.40;;;22.60;99.90;;;;;;5052173;28;20469;-51
2023/08/17 10:51:00;;;;;;;3.47;2.47;;;22.60;99.90;;;;;;5050688;28;20541;-51
2023/08/17 10:53:26;;;;;;;3.63;2.50;;;22.60;99.90;;;;;;5046008;28;20510;-51
2023/08/17 10:55:58;;;;;;;4.53;2.30;;;22.60;99.90;;;;;;5051840;28;20521;-51
2023/08/17 10:58:25;;;;;;;3.70;2.20;;;23.10;99.90;;;;;;5052081;28;20572;-52
2023/08/17 11:00:56;;;;;;;9.20;2.17;;;24.20;99.90;;;;;;5051709;28;20472;-51
2023/08/17 11:03:24;;;;;;;3.87;2.33;;;24.90;99.90;;;;;;5032114;28;20916;-51
2023/08/17 11:05:53;;;;;;;3.23;1.97;;;25.40;99.90;;;;;;5044679;28;20458;-50
2023/08/17 11:08:25;;;;;;;2.97;2.07;;;26.90;42.30;;;;;;5051019;28;20481;-51
2023/08/17 11:10:59;;;;;;;2.60;1.90;;;27.40;74.80;;;;;;5050822;28;20493;-51
2023/08/17 11:13:28;;;;;;;2.83;2.30;;;27.10;70.00;;;;;;5050343;28;20466;-52
2023/08/17 11:15:56;;;;;;;2.30;2.10;;;26.80;69.30;;;;;;5049155;28;20955;-51
2023/08/17 11:18:23;;;;;;;5.13;2.50;;;26.00;56.30;;;;;;5047548;28;20493;-51
2023/08/17 11:20:51;;;;;;;3.00;2.43;;;25.70;37.40;;;;;;5047952;28;20501;-50
2023/08/17 11:23:18;;;;;;;4.90;2.87;;;26.70;67.40;;;;;;5050374;28;20485;-51
2023/08/17 11:25:45;;;;;;;4.67;2.30;;;27.90;72.70;;;;;;5049110;28;21016;-50
2023/08/17 11:28:14;;;;;;;5.43;2.40;;;27.80;88.90;;;;;;5044124;28;20474;-51
2023/08/17 11:30:41;;;;;;;1.93;1.83;;;27.80;95.20;;;;;;5050380;28;20462;-51
2023/08/17 11:33:10;;;;;;;2.17;2.07;;;27.40;77.00;;;;;;5050273;28;20489;-50
2023/08/17 11:35:37;;;;;;;3.27;2.30;;;26.70;60.60;;;;;;5047467;28;20462;-52
2023/08/17 11:38:05;;;;;;;2.80;2.17;;;26.70;68.10;;;;;;5051449;28;20482;-51
2023/08/17 11:40:32;;;;;;;2.97;2.00;;;26.20;47.20;;;;;;5049917;28;20457;-50
2023/08/17 11:42:59;;;;;;;3.20;2.37;;;25.70;52.00;;;;;;5049468;28;20536;-50
2023/08/17 11:45:26;;;;;;;9.33;2.70;;;25.60;40.00;;;;;;5048548;28;20497;-51
2023/08/17 11:47:52;;;;;;;5.67;2.40;;;25.70;37.80;;;;;;5048812;28;21037;-50
2023/08/17 11:50:20;;;;;;;2.60;2.40;;;25.70;35.80;;;;;;5049010;28;20457;-51
2023/08/17 11:52:47;;;;;;;2.27;2.07;;;26.00;37.80;;;;;;5049008;28;20520;-51
2023/08/17 11:55:17;;;;;;;2.57;2.37;;;25.70;32.50;;;;;;5048719;28;20490;-51
2023/08/17 11:57:44;;;;;;;12.37;2.60;;;25.70;31.80;;;;;;5047725;28;20497;-51
2023/08/17 12:00:17;;;;;;;2.53;2.23;;;25.40;29.80;;;;;;5049937;28;21003;-51
2023/08/17 12:02:43;;;;;;;5.80;2.70;;;25.50;29.90;;;;;;5049397;28;20494;-52
2023/08/17 12:05:10;;;;;;;5.43;2.40;;;25.40;38.20;;;;;;5048755;28;20485;-51
2023/08/17 12:07:38;;;;;;;3.83;2.70;;;25.50;29.60;;;;;;5050773;28;20473;-51
2023/08/17 12:10:05;;;;;;;3.90;2.63;;;25.80;40.00;;;;;;5045940;28;21038;-51
2023/08/17 12:12:36;;;;;;;2.63;2.43;;;25.70;27.70;;;;;;5051208;28;20471;-52
2023/08/17 12:15:04;;;;;;;5.70;2.77;;;25.90;23.40;;;;;;5050554;28;20486;-50
2023/08/17 12:17:31;;;;;;;2.83;2.63;;;26.30;34.90;;;;;;5047934;28;20477;-50
2023/08/17 12:19:59;;;;;;;2.10;2.00;;;26.50;39.90;;;;;;5047651;28;20544;-51
2023/08/17 12:22:26;;;;;;;2.67;2.47;;;26.20;40.70;;;;;;5046851;28;20458;-51
2023/08/17 12:24:54;;;;;;;14.73;3.17;;;26.00;44.40;;;;;;5045481;28;20524;-50
2023/08/17 12:27:24;;;;;;;11.80;2.73;;;25.80;41.00;;;;;;5045600;28;20450;-51
2023/08/17 12:29:52;;;;;;;2.90;2.60;;;25.90;35.00;;;;;;5049945;28;20466;-52
2023/08/17 12:32:20;;;;;;;5.30;2.87;;;25.80;30.70;;;;;;5047709;28;20491;-50
2023/08/17 12:34:47;;;;;;;2.57;2.37;;;26.10;31.40;;;;;;5048211;28;20528;-50
2023/08/17 12:37:20;;;;;;;4.03;3.10;;;26.30;39.90;;;;;;5048522;28;20560;-50
2023/08/17 12:39:47;;;;;;;3.97;3.20;;;26.00;42.40;;;;;;5049177;28;20434;-51
2023/08/17 12:42:15;;;;;;;4.10;3.70;;;25.90;27.20;;;;;;5031178;28;20439;-51
2023/08/17 12:44:42;;;;;;;5.03;3.40;;;25.50;22.10;;;;;;5045287;28;20536;-51
2023/08/17 12:47:09;;;;;;;3.63;3.33;;;25.30;99.90;;;;;;5049649;28;20553;-51